createdAt,value
2017-07-09T00:01:28.046Z,6.93
2017-07-09T00:03:57.145Z,7.27
2017-07-09T00:06:25.481Z,5.30
2017-07-09T00:08:53.811Z,5.37
2017-07-09T00:11:22.202Z,5.60
2017-07-09T00:13:50.525Z,5.37
2017-07-09T00:16:18.825Z,4.60
2017-07-09T00:18:47.137Z,3.90
2017-07-09T00:21:15.482Z,4.27
2017-07-09T00:23:43.778Z,4.63
2017-07-09T00:26:12.074Z,4.83
2017-07-09T00:28:40.402Z,4.43
2017-07-09T00:31:08.707Z,3.90
2017-07-09T00:33:37.077Z,4.37
2017-07-09T00:36:05.372Z,4.00
2017-07-09T00:38:34.437Z,4.00
2017-07-09T00:41:02.769Z,3.80
2017-07-09T00:43:31.076Z,3.77
2017-07-09T00:45:59.393Z,3.73
2017-07-09T00:48:28.470Z,3.70
2017-07-09T00:50:56.807Z,3.67
2017-07-09T00:53:25.129Z,4.50
2017-07-09T00:55:53.461Z,4.10
2017-07-09T00:58:21.849Z,4.87
2017-07-09T01:00:50.149Z,3.90
2017-07-09T01:03:18.484Z,4.83
2017-07-09T01:05:46.933Z,4.57
2017-07-09T01:08:15.236Z,4.70
2017-07-09T01:10:43.567Z,4.13
2017-07-09T01:13:11.910Z,5.20
2017-07-09T01:15:40.205Z,5.73
2017-07-09T01:18:08.510Z,5.13
2017-07-09T01:20:36.840Z,4.87
2017-07-09T01:23:05.176Z,4.63
2017-07-09T01:25:33.478Z,5.30
2017-07-09T01:28:01.779Z,5.33
2017-07-09T01:30:30.101Z,5.73
2017-07-09T01:32:59.170Z,5.17
2017-07-09T01:35:27.503Z,4.13
2017-07-09T01:37:55.804Z,4.50
2017-07-09T01:40:24.154Z,4.80
2017-07-09T01:42:52.455Z,5.40
2017-07-09T01:45:20.821Z,4.50
2017-07-09T01:47:49.123Z,4.77
2017-07-09T01:50:17.422Z,4.77
2017-07-09T01:52:45.746Z,4.60
2017-07-09T01:55:14.045Z,4.80
2017-07-09T01:57:42.386Z,4.57
2017-07-09T02:00:10.685Z,4.87
2017-07-09T02:02:39.747Z,5.10
2017-07-09T02:05:08.093Z,5.23
2017-07-09T02:07:36.398Z,4.70
2017-07-09T02:10:05.457Z,4.50
2017-07-09T02:12:33.781Z,4.57
2017-07-09T02:15:02.871Z,4.50
2017-07-09T02:17:31.687Z,5.40
2017-07-09T02:19:59.990Z,5.13
2017-07-09T02:22:28.321Z,6.10
2017-07-09T02:24:56.615Z,5.30
2017-07-09T02:27:24.948Z,4.97
2017-07-09T02:29:53.486Z,4.90
2017-07-09T02:32:22.551Z,4.80
2017-07-09T02:34:50.899Z,5.10
2017-07-09T02:37:19.193Z,5.17
2017-07-09T02:39:47.493Z,5.97
2017-07-09T02:42:15.841Z,6.20
2017-07-09T02:44:44.136Z,5.60
2017-07-09T02:47:12.441Z,6.30
2017-07-09T02:49:40.782Z,6.07
2017-07-09T02:52:09.083Z,5.50
2017-07-09T02:54:37.411Z,5.83
2017-07-09T02:57:05.757Z,5.73
2017-07-09T02:59:34.050Z,5.37
2017-07-09T03:02:03.129Z,5.27
2017-07-09T03:04:31.508Z,5.20
2017-07-09T03:06:59.807Z,4.33
2017-07-09T03:09:28.101Z,4.40
2017-07-09T03:11:56.441Z,4.60
2017-07-09T03:14:24.739Z,5.50
2017-07-09T03:16:53.034Z,4.70
2017-07-09T03:19:21.433Z,4.40
2017-07-09T03:21:49.750Z,5.00
2017-07-09T03:24:18.052Z,4.30
2017-07-09T03:26:46.378Z,4.30
2017-07-09T03:29:14.678Z,4.70
2017-07-09T03:31:42.974Z,3.90
2017-07-09T03:34:11.300Z,4.70
2017-07-09T03:36:40.382Z,4.40
2017-07-09T03:39:08.714Z,4.03
2017-07-09T03:41:37.006Z,4.57
2017-07-09T03:44:05.341Z,4.17
2017-07-09T03:46:33.637Z,4.70
2017-07-09T03:49:01.937Z,3.77
2017-07-09T03:51:30.278Z,4.80
2017-07-09T03:53:58.579Z,4.50
2017-07-09T03:56:26.881Z,4.20
2017-07-09T03:58:55.209Z,4.07
2017-07-09T04:01:23.534Z,4.10
2017-07-09T04:03:51.839Z,4.30
2017-07-09T04:06:20.232Z,4.30
2017-07-09T04:08:48.561Z,4.60
2017-07-09T04:11:16.910Z,5.63
2017-07-09T04:13:45.971Z,4.90
2017-07-09T04:16:14.267Z,4.43
2017-07-09T04:18:42.680Z,4.70
2017-07-09T04:21:11.011Z,4.50
2017-07-09T04:23:39.306Z,4.90
2017-07-09T04:26:07.637Z,4.80
2017-07-09T04:28:35.974Z,4.50
2017-07-09T04:31:04.275Z,4.67
2017-07-09T04:33:33.338Z,5.30
2017-07-09T04:36:01.666Z,4.50
2017-07-09T04:38:29.966Z,4.67
2017-07-09T04:40:58.306Z,4.90
2017-07-09T04:43:27.379Z,4.07
2017-07-09T04:45:55.673Z,4.60
2017-07-09T04:48:24.022Z,4.53
2017-07-09T04:50:52.413Z,4.17
2017-07-09T04:53:20.731Z,4.57
2017-07-09T04:55:49.826Z,5.03
2017-07-09T04:58:18.124Z,4.10
2017-07-09T05:00:46.468Z,4.03
2017-07-09T05:03:14.770Z,4.03
2017-07-09T05:05:43.070Z,4.43
2017-07-09T05:08:11.406Z,4.07
2017-07-09T05:10:40.492Z,4.87
2017-07-09T05:13:08.842Z,5.10
2017-07-09T05:15:37.217Z,3.80
2017-07-09T05:18:05.566Z,5.40
2017-07-09T05:20:33.861Z,4.87
2017-07-09T05:23:02.198Z,5.10
2017-07-09T05:25:30.511Z,4.77
2017-07-09T05:27:58.812Z,4.00
2017-07-09T05:30:27.150Z,4.87
2017-07-09T05:32:56.208Z,4.10
2017-07-09T05:35:24.523Z,4.33
2017-07-09T05:37:52.869Z,4.60
2017-07-09T05:40:21.936Z,4.50
2017-07-09T05:42:50.234Z,4.67
2017-07-09T05:45:18.559Z,4.70
2017-07-09T05:47:46.910Z,4.33
2017-07-09T05:50:15.211Z,4.10
2017-07-09T05:52:44.281Z,3.73
2017-07-09T05:55:12.627Z,4.27
2017-07-09T05:57:41.689Z,4.13
2017-07-09T06:00:09.987Z,4.50
2017-07-09T06:02:38.430Z,4.60
2017-07-09T06:05:06.725Z,4.17
2017-07-09T06:07:35.019Z,4.27
2017-07-09T06:10:03.376Z,3.90
2017-07-09T06:12:31.691Z,3.80
2017-07-09T06:15:00.000Z,3.93
2017-07-09T06:17:28.357Z,3.47
2017-07-09T06:19:57.422Z,3.67
2017-07-09T06:22:25.717Z,4.03
2017-07-09T06:24:54.051Z,3.60
2017-07-09T06:27:22.352Z,3.10
2017-07-09T06:29:50.657Z,4.13
2017-07-09T06:32:18.993Z,4.63
2017-07-09T06:34:47.339Z,4.00
2017-07-09T06:37:16.571Z,3.73
2017-07-09T06:39:44.889Z,3.73
2017-07-09T06:42:13.986Z,3.93
2017-07-09T06:44:42.343Z,3.50
2017-07-09T06:47:10.642Z,4.17
2017-07-09T06:49:38.937Z,4.10
2017-07-09T06:52:07.274Z,3.60
2017-07-09T06:54:35.571Z,3.63
2017-07-09T06:57:03.917Z,3.63
2017-07-09T06:59:32.213Z,3.80
2017-07-09T07:02:00.519Z,3.50
2017-07-09T07:04:28.873Z,4.10
2017-07-09T07:06:57.178Z,4.20
2017-07-09T07:09:25.519Z,3.40
2017-07-09T07:11:53.816Z,3.77
2017-07-09T07:14:22.155Z,3.40
2017-07-09T07:16:50.485Z,3.57
2017-07-09T07:19:18.784Z,4.30
2017-07-09T07:21:47.086Z,3.50
2017-07-09T07:24:15.449Z,4.23
2017-07-09T07:26:43.749Z,3.50
2017-07-09T07:29:12.847Z,4.20
2017-07-09T07:31:41.144Z,3.87
2017-07-09T07:34:09.495Z,4.10
2017-07-09T07:36:37.840Z,3.53
2017-07-09T07:39:06.166Z,3.83
2017-07-09T07:41:34.472Z,4.60
2017-07-09T07:44:02.801Z,3.30
2017-07-09T07:46:31.133Z,3.47
2017-07-09T07:49:00.238Z,3.80
2017-07-09T07:51:29.312Z,3.83
2017-07-09T07:53:57.609Z,4.17
2017-07-09T07:56:26.461Z,4.03
2017-07-09T07:58:54.955Z,3.60
2017-07-09T08:01:23.249Z,3.93
2017-07-09T08:03:51.598Z,4.07
2017-07-09T08:06:20.670Z,3.60
2017-07-09T08:08:49.025Z,4.37
2017-07-09T08:11:18.086Z,4.17
2017-07-09T08:13:46.405Z,4.30
2017-07-09T08:16:14.745Z,5.03
2017-07-09T08:18:43.809Z,4.27
2017-07-09T08:21:12.107Z,4.50
2017-07-09T08:23:40.444Z,3.93
2017-07-09T08:26:08.775Z,4.10
2017-07-09T08:28:37.070Z,4.73
2017-07-09T08:31:05.400Z,4.40
2017-07-09T08:33:33.697Z,4.20
2017-07-09T08:36:01.996Z,4.77
2017-07-09T08:38:30.338Z,4.80
2017-07-09T08:40:58.634Z,4.13
2017-07-09T08:43:26.946Z,3.73
2017-07-09T08:45:55.283Z,4.00
2017-07-09T08:48:23.586Z,4.30
2017-07-09T08:50:51.915Z,4.00
2017-07-09T08:53:20.242Z,4.20
2017-07-09T08:55:48.538Z,4.23
2017-07-09T08:58:16.908Z,4.23
2017-07-09T09:00:45.273Z,3.90
2017-07-09T09:03:13.574Z,4.27
2017-07-09T09:05:41.877Z,4.10
2017-07-09T09:08:10.208Z,5.27
2017-07-09T09:10:39.269Z,4.10
2017-07-09T09:13:07.590Z,4.73
2017-07-09T09:15:36.917Z,4.70
2017-07-09T09:18:05.927Z,4.57
2017-07-09T09:20:34.308Z,4.77
2017-07-09T09:23:02.630Z,4.50
2017-07-09T09:25:31.118Z,4.20
2017-07-09T09:28:00.177Z,3.93
2017-07-09T09:30:28.546Z,4.20
2017-07-09T09:32:56.852Z,4.40
2017-07-09T09:35:25.909Z,4.77
2017-07-09T09:37:54.309Z,3.90
2017-07-09T09:40:23.376Z,4.27
2017-07-09T09:42:51.666Z,3.80
2017-07-09T09:45:19.995Z,4.33
2017-07-09T09:47:48.337Z,4.97
2017-07-09T09:50:17.424Z,5.63
2017-07-09T09:52:45.931Z,4.37
2017-07-09T09:55:14.318Z,4.43
2017-07-09T09:57:42.606Z,5.13
2017-07-09T10:00:10.906Z,4.70
2017-07-09T10:02:39.236Z,4.17
2017-07-09T10:05:07.535Z,4.40
2017-07-09T10:07:35.860Z,4.00
2017-07-09T10:10:04.190Z,3.50
2017-07-09T10:12:33.256Z,4.17
2017-07-09T10:15:01.573Z,4.53
2017-07-09T10:17:29.910Z,4.00
2017-07-09T10:19:58.257Z,3.70
2017-07-09T10:22:26.547Z,4.10
2017-07-09T10:24:54.840Z,3.70
2017-07-09T10:27:23.951Z,2.97
2017-07-09T10:29:52.265Z,2.60
2017-07-09T10:32:21.336Z,3.27
2017-07-09T10:34:49.658Z,3.43
2017-07-09T10:37:17.999Z,3.00
2017-07-09T10:39:47.059Z,3.37
2017-07-09T10:42:15.365Z,4.40
2017-07-09T10:44:43.702Z,3.70
2017-07-09T10:47:12.011Z,4.03
2017-07-09T10:49:41.106Z,3.50
2017-07-09T10:52:09.446Z,4.07
2017-07-09T10:54:37.761Z,3.30
2017-07-09T10:57:06.056Z,3.97
2017-07-09T10:59:35.150Z,3.80
2017-07-09T11:02:03.477Z,4.20
2017-07-09T11:04:31.822Z,4.53
2017-07-09T11:07:00.114Z,3.90
2017-07-09T11:09:28.402Z,4.47
2017-07-09T11:11:56.726Z,5.77
2017-07-09T11:14:25.027Z,6.07
2017-07-09T11:16:53.367Z,3.90
2017-07-09T11:19:21.707Z,4.33
2017-07-09T11:21:50.060Z,4.60
2017-07-09T11:24:18.355Z,3.80
2017-07-09T11:26:46.655Z,4.30
2017-07-09T11:29:15.033Z,4.20
2017-07-09T11:31:43.350Z,4.80
2017-07-09T11:34:11.648Z,4.33
2017-07-09T11:36:39.977Z,4.67
2017-07-09T11:39:08.295Z,3.93
2017-07-09T11:41:36.622Z,8.77
2017-07-09T11:44:04.914Z,4.40
2017-07-09T11:46:33.202Z,3.90
2017-07-09T11:49:01.539Z,4.07
2017-07-09T11:51:29.834Z,3.40
2017-07-09T11:53:58.133Z,4.10
2017-07-09T11:56:26.590Z,4.13
2017-07-09T11:58:54.873Z,3.87
2017-07-09T12:01:23.201Z,3.53
2017-07-09T12:03:51.590Z,3.80
2017-07-09T12:06:19.898Z,3.77
2017-07-09T12:08:48.230Z,3.80
2017-07-09T12:11:16.530Z,4.10
2017-07-09T12:13:44.822Z,4.10
2017-07-09T12:16:13.175Z,4.13
2017-07-09T12:18:41.482Z,4.30
2017-07-09T12:21:09.790Z,4.43
2017-07-09T12:23:38.134Z,3.30
2017-07-09T12:26:06.441Z,4.00
2017-07-09T12:28:34.738Z,3.90
2017-07-09T12:31:03.198Z,4.30
2017-07-09T12:33:31.494Z,3.83
2017-07-09T12:36:00.562Z,4.20
2017-07-09T12:38:28.896Z,3.80
2017-07-09T12:40:57.204Z,3.90
2017-07-09T12:43:25.594Z,3.80
2017-07-09T12:45:53.888Z,4.00
2017-07-09T12:48:22.289Z,4.40
2017-07-09T12:50:50.586Z,3.60
2017-07-09T12:53:18.939Z,3.43
2017-07-09T12:55:47.282Z,3.87
2017-07-09T12:58:15.578Z,3.53
2017-07-09T13:00:43.919Z,3.50
2017-07-09T13:03:12.214Z,3.77
2017-07-09T13:05:40.513Z,4.30
2017-07-09T13:08:08.841Z,3.67
2017-07-09T13:10:37.934Z,3.80
2017-07-09T13:13:06.327Z,4.13
2017-07-09T13:15:34.634Z,4.30
2017-07-09T13:18:02.967Z,3.80
2017-07-09T13:20:31.319Z,3.67
2017-07-09T13:22:59.622Z,3.90
2017-07-09T13:25:27.910Z,3.43
2017-07-09T13:27:56.245Z,3.50
2017-07-09T13:30:24.544Z,3.30
2017-07-09T13:32:52.841Z,3.53
2017-07-09T13:35:21.174Z,2.63
2017-07-09T13:37:49.515Z,3.10
2017-07-09T13:40:18.570Z,2.90
2017-07-09T13:42:47.035Z,3.10
2017-07-09T13:45:16.172Z,2.80
2017-07-09T13:47:45.232Z,2.60
2017-07-09T13:50:13.526Z,2.97
2017-07-09T13:52:41.872Z,2.50
2017-07-09T13:55:10.222Z,2.47
2017-07-09T13:57:38.530Z,3.47
2017-07-09T14:00:08.294Z,3.40
2017-07-09T14:02:36.587Z,3.07
2017-07-09T14:05:04.882Z,3.37
2017-07-09T14:07:33.257Z,3.60
2017-07-09T14:10:01.548Z,3.30
2017-07-09T14:12:29.850Z,3.07
2017-07-09T14:14:58.181Z,2.90
2017-07-09T14:17:26.495Z,3.43
2017-07-09T14:19:54.792Z,3.80
2017-07-09T14:22:23.926Z,3.70
2017-07-09T14:24:52.374Z,3.50
2017-07-09T14:27:20.667Z,3.90
2017-07-09T14:29:49.013Z,3.60
2017-07-09T14:32:17.306Z,3.27
2017-07-09T14:34:45.595Z,3.50
2017-07-09T14:37:13.921Z,4.03
2017-07-09T14:39:42.211Z,3.60
2017-07-09T14:42:10.510Z,3.43
2017-07-09T14:44:38.856Z,3.77
2017-07-09T14:47:07.913Z,3.40
2017-07-09T14:49:36.209Z,3.10
2017-07-09T14:52:04.586Z,3.17
2017-07-09T14:54:32.844Z,3.33
2017-07-09T14:57:01.178Z,3.43
2017-07-09T14:59:29.476Z,3.10
2017-07-09T15:01:57.828Z,5.10
2017-07-09T15:04:26.137Z,10.80
2017-07-09T15:06:54.458Z,3.93
2017-07-09T15:09:22.802Z,11.77
2017-07-09T15:11:51.138Z,7.10
2017-07-09T15:14:19.437Z,4.30
2017-07-09T15:16:48.534Z,13.20
2017-07-09T15:19:16.883Z,12.50
2017-07-09T15:21:45.173Z,3.67
2017-07-09T15:24:13.460Z,4.50
2017-07-09T15:26:42.562Z,4.00
2017-07-09T15:29:10.915Z,3.90
2017-07-09T15:31:39.338Z,3.50
2017-07-09T15:34:07.688Z,4.03
2017-07-09T15:36:36.759Z,15.07
2017-07-09T15:39:05.049Z,4.07
2017-07-09T15:41:33.370Z,4.90
2017-07-09T15:44:01.836Z,4.23
2017-07-09T15:46:30.938Z,4.27
2017-07-09T15:48:59.239Z,6.33
2017-07-09T15:51:27.538Z,7.27
2017-07-09T15:53:55.879Z,11.53
2017-07-09T15:56:24.183Z,18.60
2017-07-09T15:58:52.482Z,14.57
2017-07-09T16:01:20.815Z,6.30
2017-07-09T16:03:49.107Z,4.80
2017-07-09T16:06:17.410Z,4.80
2017-07-09T16:08:45.751Z,5.00
2017-07-09T16:11:14.043Z,4.63
2017-07-09T16:13:42.338Z,4.47
2017-07-09T16:16:11.422Z,4.50
2017-07-09T16:18:39.721Z,4.53
2017-07-09T16:21:08.345Z,4.50
2017-07-09T16:23:36.637Z,5.27
2017-07-09T16:26:04.924Z,4.60
2017-07-09T16:28:33.256Z,5.03
2017-07-09T16:31:02.314Z,4.00
2017-07-09T16:33:30.606Z,4.40
2017-07-09T16:35:59.711Z,4.47
2017-07-09T16:38:28.053Z,5.40
2017-07-09T16:40:58.318Z,4.20
2017-07-09T16:43:26.616Z,4.23
2017-07-09T16:45:54.946Z,4.50
2017-07-09T16:48:23.327Z,4.70
2017-07-09T16:50:51.630Z,6.20
2017-07-09T16:53:20.001Z,4.50
2017-07-09T16:55:48.306Z,4.60
2017-07-09T16:58:16.604Z,5.00
2017-07-09T17:00:44.954Z,4.70
2017-07-09T17:03:13.246Z,4.67
2017-07-09T17:05:41.557Z,4.77
2017-07-09T17:08:09.894Z,4.13
2017-07-09T17:10:38.191Z,4.20
2017-07-09T17:13:06.489Z,5.87
2017-07-09T17:15:34.811Z,4.30
2017-07-09T17:18:03.132Z,5.30
2017-07-09T17:20:31.467Z,5.30
2017-07-09T17:22:59.754Z,4.70
2017-07-09T17:25:28.867Z,4.53
2017-07-09T17:27:57.975Z,5.20
2017-07-09T17:30:26.275Z,4.83
2017-07-09T17:32:54.583Z,5.07
2017-07-09T17:35:22.919Z,5.43
2017-07-09T17:37:51.980Z,4.90
2017-07-09T17:40:20.274Z,4.60
2017-07-09T17:42:48.622Z,4.40
2017-07-09T17:45:17.737Z,4.57
2017-07-09T17:47:46.058Z,4.37
2017-07-09T17:50:15.115Z,5.50
2017-07-09T17:52:43.442Z,4.17
2017-07-09T17:55:11.789Z,5.30
2017-07-09T17:57:40.858Z,4.17
2017-07-09T18:00:09.165Z,4.60
2017-07-09T18:02:37.522Z,4.27
2017-07-09T18:05:06.580Z,4.77
2017-07-09T18:07:34.926Z,4.70
2017-07-09T18:10:03.235Z,4.70
2017-07-09T18:12:31.526Z,3.87
2017-07-09T18:14:59.894Z,4.50
2017-07-09T18:17:28.206Z,4.50
2017-07-09T18:19:56.523Z,5.20
2017-07-09T18:22:24.853Z,6.83
2017-07-09T18:24:53.944Z,5.40
2017-07-09T18:27:22.257Z,7.83
2017-07-09T18:29:50.563Z,4.80
2017-07-09T18:32:18.904Z,5.77
2017-07-09T18:34:47.987Z,8.00
2017-07-09T18:37:16.283Z,7.13
2017-07-09T18:39:44.643Z,7.13
2017-07-09T18:42:13.016Z,7.33
2017-07-09T18:44:41.343Z,7.50
2017-07-09T18:47:10.471Z,8.93
2017-07-09T18:49:38.763Z,6.90
2017-07-09T18:52:07.865Z,8.00
2017-07-09T18:54:36.195Z,7.27
2017-07-09T18:57:05.270Z,5.93
2017-07-09T18:59:33.779Z,6.27
2017-07-09T19:02:02.073Z,5.47
2017-07-09T19:04:30.443Z,6.43
2017-07-09T19:06:58.787Z,5.37
2017-07-09T19:09:27.168Z,4.13
2017-07-09T19:11:55.492Z,4.60
2017-07-09T19:14:23.834Z,5.57
2017-07-09T19:16:52.126Z,5.33
2017-07-09T19:19:20.469Z,5.00
2017-07-09T19:21:48.815Z,5.67
2017-07-09T19:24:17.112Z,5.37
2017-07-09T19:26:45.480Z,5.33
2017-07-09T19:29:14.570Z,5.70
2017-07-09T19:31:42.939Z,5.77
2017-07-09T19:34:11.258Z,5.23
2017-07-09T19:36:39.638Z,5.37
2017-07-09T19:39:08.019Z,4.93
2017-07-09T19:41:37.119Z,5.43
2017-07-09T19:44:05.517Z,4.90
2017-07-09T19:46:33.805Z,5.80
2017-07-09T19:49:02.261Z,9.30
2017-07-09T19:51:31.363Z,5.53
2017-07-09T19:53:59.722Z,4.23
2017-07-09T19:56:28.022Z,4.53
2017-07-09T19:58:56.410Z,4.33
2017-07-09T20:01:24.718Z,5.10
2017-07-09T20:03:53.014Z,6.90
2017-07-09T20:06:21.347Z,4.97
2017-07-09T20:08:49.785Z,4.93
2017-07-09T20:11:18.081Z,4.13
2017-07-09T20:13:46.393Z,4.77
2017-07-09T20:16:14.766Z,5.10
2017-07-09T20:18:43.057Z,5.30
2017-07-09T20:21:12.282Z,5.00
2017-07-09T20:23:41.343Z,4.90
2017-07-09T20:26:09.638Z,4.63
2017-07-09T20:28:37.967Z,4.70
2017-07-09T20:31:06.258Z,4.50
2017-07-09T20:33:34.585Z,4.40
2017-07-09T20:36:02.878Z,4.47
2017-07-09T20:38:31.194Z,4.80
2017-07-09T20:40:59.594Z,5.07
2017-07-09T20:43:27.962Z,4.77
2017-07-09T20:45:56.260Z,5.60
2017-07-09T20:48:24.559Z,5.37
2017-07-09T20:50:52.961Z,4.60
2017-07-09T20:53:22.018Z,5.30
2017-07-09T20:55:50.309Z,5.27
2017-07-09T20:58:18.646Z,5.10
2017-07-09T21:00:47.017Z,5.67
2017-07-09T21:03:15.325Z,4.37
2017-07-09T21:05:43.690Z,4.97
2017-07-09T21:08:12.749Z,5.03
2017-07-09T21:10:41.046Z,5.37
2017-07-09T21:13:09.434Z,6.10
2017-07-09T21:15:37.724Z,5.40
2017-07-09T21:18:06.022Z,5.90
2017-07-09T21:20:35.155Z,5.47
2017-07-09T21:23:04.216Z,6.23
2017-07-09T21:25:33.330Z,7.33
2017-07-09T21:28:01.633Z,6.00
2017-07-09T21:30:29.928Z,5.93
2017-07-09T21:32:58.465Z,7.10
2017-07-09T21:35:26.751Z,7.17
2017-07-09T21:37:55.047Z,6.80
2017-07-09T21:40:23.391Z,7.70
2017-07-09T21:42:51.691Z,7.40
2017-07-09T21:45:20.809Z,7.97
2017-07-09T21:47:49.153Z,9.17
2017-07-09T21:50:18.215Z,9.47
2017-07-09T21:52:46.515Z,9.27
2017-07-09T21:55:14.845Z,9.20
2017-07-09T21:57:43.170Z,8.67
2017-07-09T22:00:11.509Z,7.10
2017-07-09T22:02:39.796Z,6.90
2017-07-09T22:05:08.090Z,7.57
2017-07-09T22:07:36.411Z,8.17
2017-07-09T22:10:04.734Z,9.87
2017-07-09T22:12:33.059Z,8.20
2017-07-09T22:15:01.388Z,8.70
2017-07-09T22:17:29.756Z,7.93
2017-07-09T22:19:58.054Z,6.60
2017-07-09T22:22:26.406Z,7.43
2017-07-09T22:24:54.698Z,8.13
2017-07-09T22:27:22.986Z,7.93
2017-07-09T22:29:51.325Z,8.97
2017-07-09T22:32:19.617Z,9.83
2017-07-09T22:34:48.680Z,7.50
2017-07-09T22:37:16.998Z,7.17
2017-07-09T22:39:45.290Z,7.10
2017-07-09T22:42:13.621Z,7.93
2017-07-09T22:44:41.910Z,7.37
2017-07-09T22:47:10.204Z,7.97
2017-07-09T22:49:38.522Z,8.07
2017-07-09T22:52:06.813Z,6.40
2017-07-09T22:54:35.136Z,6.70
2017-07-09T22:57:03.431Z,7.53
2017-07-09T22:59:31.847Z,7.10
2017-07-09T23:02:00.174Z,6.30
2017-07-09T23:04:29.289Z,7.67
2017-07-09T23:06:58.387Z,7.13
2017-07-09T23:09:26.681Z,6.83
2017-07-09T23:11:54.970Z,7.33
2017-07-09T23:14:23.311Z,7.60
2017-07-09T23:16:51.602Z,6.83
2017-07-09T23:19:19.896Z,7.00
2017-07-09T23:21:48.223Z,6.90
2017-07-09T23:24:16.518Z,6.67
2017-07-09T23:26:44.863Z,6.93
2017-07-09T23:29:13.159Z,7.27
2017-07-09T23:31:41.479Z,7.50
2017-07-09T23:34:09.801Z,9.37
2017-07-09T23:36:38.105Z,8.70
2017-07-09T23:39:06.435Z,7.47
2017-07-09T23:41:34.774Z,8.70
2017-07-09T23:44:03.076Z,7.97
2017-07-09T23:46:31.379Z,7.63
2017-07-09T23:48:59.709Z,10.10
2017-07-09T23:51:27.997Z,7.30
2017-07-09T23:53:56.322Z,8.63
2017-07-09T23:56:24.647Z,9.00
2017-07-09T23:58:52.938Z,9.00
